createdAt,value
2019-02-07T05:00:24.253Z,0
2019-02-07T05:03:52.102Z,0
2019-02-07T05:07:19.972Z,0
2019-02-07T05:10:47.825Z,0
2019-02-07T05:14:15.690Z,0
2019-02-07T05:17:43.550Z,0
2019-02-07T05:21:11.498Z,0
2019-02-07T05:24:39.272Z,0
2019-02-07T05:28:07.141Z,0
2019-02-07T05:31:36.002Z,0
2019-02-07T05:35:03.863Z,0
2019-02-07T05:38:31.736Z,0
2019-02-07T05:41:59.599Z,0
2019-02-07T05:45:27.451Z,0
2019-02-07T05:48:55.315Z,0
2019-02-07T05:52:23.191Z,0
2019-02-07T05:55:51.157Z,0
2019-02-07T05:59:19.008Z,0
2019-02-07T06:02:47.870Z,0
2019-02-07T06:06:15.761Z,0
2019-02-07T06:09:43.608Z,0
2019-02-07T06:13:11.475Z,0
2019-02-07T06:16:39.330Z,0
2019-02-07T06:20:07.203Z,0
2019-02-07T06:23:35.067Z,0
2019-02-07T06:27:03.042Z,0
2019-02-07T06:30:30.961Z,0
2019-02-07T06:33:58.755Z,0
2019-02-07T06:37:26.636Z,0
2019-02-07T06:40:54.483Z,0
2019-02-07T06:44:22.340Z,0
2019-02-07T06:47:50.212Z,0
2019-02-07T06:51:18.063Z,0
2019-02-07T06:54:45.961Z,0
2019-02-07T06:58:13.815Z,0
2019-02-07T07:01:41.659Z,5.625
2019-02-07T07:05:09.530Z,5.625
2019-02-07T07:08:37.412Z,0
2019-02-07T07:12:05.258Z,5.625
2019-02-07T07:15:33.121Z,5.625
2019-02-07T07:19:00.982Z,11.25
2019-02-07T07:22:29.821Z,16.875
2019-02-07T07:25:57.689Z,11.25
2019-02-07T07:29:25.651Z,16.875
2019-02-07T07:32:54.390Z,22.5
2019-02-07T07:36:23.242Z,28.125
2019-02-07T07:39:51.105Z,33.75
2019-02-07T07:43:19.939Z,39.375
2019-02-07T07:46:47.816Z,33.75
2019-02-07T07:50:15.676Z,39.375
2019-02-07T07:53:43.525Z,45
2019-02-07T07:57:11.417Z,45
2019-02-07T08:00:39.291Z,45
2019-02-07T08:04:07.138Z,50.625
2019-02-07T08:07:34.998Z,56.25
2019-02-07T08:11:02.867Z,56.25
2019-02-07T08:14:32.692Z,50.625
2019-02-07T08:18:00.566Z,50.625
2019-02-07T08:21:28.434Z,45
2019-02-07T08:24:56.285Z,45
2019-02-07T08:28:26.623Z,45
2019-02-07T08:31:53.031Z,56.25
2019-02-07T08:35:20.885Z,95.625
2019-02-07T08:38:50.054Z,129.375
2019-02-07T08:42:17.674Z,118.125
2019-02-07T08:45:45.554Z,106.875
2019-02-07T08:49:13.387Z,112.5
2019-02-07T08:52:41.256Z,123.75
2019-02-07T08:56:09.107Z,129.375
2019-02-07T08:59:36.963Z,140.625
2019-02-07T09:03:05.822Z,157.5
2019-02-07T09:06:33.680Z,174.375
2019-02-07T09:10:01.547Z,185.625
2019-02-07T09:13:29.405Z,191.25
2019-02-07T09:16:57.261Z,180
2019-02-07T09:20:25.142Z,185.625
2019-02-07T09:23:53.030Z,168.75
2019-02-07T09:27:20.880Z,157.5
2019-02-07T09:30:48.773Z,140.625
2019-02-07T09:34:16.647Z,129.375
2019-02-07T09:37:44.505Z,129.375
2019-02-07T09:41:12.373Z,123.75
2019-02-07T09:44:40.276Z,106.875
2019-02-07T09:48:08.167Z,90
2019-02-07T09:51:37.010Z,90
2019-02-07T09:55:04.882Z,90
2019-02-07T09:58:32.743Z,95.625
2019-02-07T10:02:00.591Z,90
2019-02-07T10:05:28.461Z,84.375
2019-02-07T10:08:56.435Z,84.375
2019-02-07T10:12:24.386Z,84.375
2019-02-07T10:15:52.275Z,90
2019-02-07T10:19:20.140Z,90
2019-02-07T10:22:48.879Z,90
2019-02-07T10:26:16.751Z,95.625
2019-02-07T10:29:44.625Z,106.875
2019-02-07T10:33:12.472Z,118.125
2019-02-07T10:36:40.359Z,123.75
2019-02-07T10:40:10.853Z,123.75
2019-02-07T10:43:37.075Z,118.125
2019-02-07T10:47:04.948Z,123.75
2019-02-07T10:50:32.818Z,118.125
2019-02-07T10:54:00.775Z,106.875
2019-02-07T10:57:28.546Z,112.5
2019-02-07T11:00:57.402Z,129.375
2019-02-07T11:04:25.287Z,129.375
2019-02-07T11:07:53.918Z,118.125
2019-02-07T11:11:22.791Z,129.375
2019-02-07T11:14:50.644Z,140.625
2019-02-07T11:18:18.512Z,135
2019-02-07T11:21:46.372Z,123.75
2019-02-07T11:25:14.221Z,101.25
2019-02-07T11:28:42.091Z,101.25
2019-02-07T11:32:10.069Z,106.875
2019-02-07T11:35:38.930Z,95.625
2019-02-07T11:39:06.792Z,95.625
2019-02-07T11:42:34.662Z,95.625
2019-02-07T11:46:02.519Z,101.25
2019-02-07T11:49:30.384Z,101.25
2019-02-07T11:52:58.250Z,95.625
2019-02-07T11:56:26.104Z,90
2019-02-07T11:59:54.966Z,90
2019-02-07T12:03:22.832Z,90
2019-02-07T12:06:50.711Z,101.25
2019-02-07T12:10:18.572Z,106.875
2019-02-07T12:13:46.438Z,101.25
2019-02-07T12:17:14.294Z,84.375
2019-02-07T12:20:42.214Z,61.875
2019-02-07T12:24:11.109Z,45
2019-02-07T12:27:38.962Z,45
2019-02-07T12:31:06.828Z,56.25
2019-02-07T12:34:34.696Z,67.5
2019-02-07T12:38:02.667Z,73.125
2019-02-07T12:41:30.512Z,61.875
2019-02-07T12:44:59.384Z,101.25
2019-02-07T12:48:27.248Z,112.5
2019-02-07T12:51:55.087Z,106.875
2019-02-07T12:55:23.080Z,151.875
2019-02-07T12:58:51.934Z,180
2019-02-07T13:02:19.785Z,118.125
2019-02-07T13:05:48.334Z,95.625
2019-02-07T13:09:16.220Z,101.25
2019-02-07T13:12:44.072Z,135
2019-02-07T13:16:11.995Z,112.5
2019-02-07T13:19:42.847Z,95.625
2019-02-07T13:23:10.735Z,84.375
2019-02-07T13:26:38.596Z,90
2019-02-07T13:30:06.474Z,84.375
2019-02-07T13:33:34.277Z,84.375
2019-02-07T13:37:02.157Z,78.75
2019-02-07T13:40:29.998Z,56.25
2019-02-07T13:43:57.849Z,61.875
2019-02-07T13:47:25.724Z,78.75
2019-02-07T13:50:53.585Z,67.5
2019-02-07T13:54:21.806Z,45
2019-02-07T13:57:49.648Z,56.25
2019-02-07T14:01:18.496Z,50.625
2019-02-07T14:04:46.362Z,45
2019-02-07T14:08:14.223Z,28.125
2019-02-07T14:11:42.092Z,33.75
2019-02-07T14:15:10.016Z,50.625
2019-02-07T14:18:37.865Z,95.625
2019-02-07T14:22:05.739Z,78.75
2019-02-07T14:25:33.597Z,61.875
2019-02-07T14:29:01.451Z,61.875
2019-02-07T14:32:29.429Z,61.875
2019-02-07T14:35:57.277Z,50.625
2019-02-07T14:39:25.136Z,56.25
2019-02-07T14:42:53.006Z,45
2019-02-07T14:46:20.856Z,28.125
2019-02-07T14:49:49.718Z,33.75
2019-02-07T14:53:17.586Z,33.75
2019-02-07T14:56:45.442Z,28.125
2019-02-07T15:00:14.349Z,28.125
2019-02-07T15:03:42.220Z,16.875
2019-02-07T15:07:10.076Z,16.875
2019-02-07T15:10:37.927Z,16.875
2019-02-07T15:14:05.801Z,11.25
2019-02-07T15:17:33.683Z,16.875
2019-02-07T15:21:02.532Z,16.875
2019-02-07T15:24:30.418Z,11.25
2019-02-07T15:27:58.292Z,11.25
2019-02-07T15:31:26.141Z,11.25
2019-02-07T15:34:54.999Z,11.25
2019-02-07T15:38:22.862Z,11.25
2019-02-07T15:41:50.738Z,11.25
2019-02-07T15:45:18.591Z,5.625
2019-02-07T15:48:46.462Z,5.625
2019-02-07T15:52:14.330Z,5.625
2019-02-07T15:55:43.176Z,5.625
2019-02-07T15:59:11.035Z,5.625
2019-02-07T16:02:39.899Z,5.625
2019-02-07T16:06:10.723Z,5.625
2019-02-07T16:09:38.589Z,0
2019-02-07T16:13:07.454Z,0
2019-02-07T16:16:37.318Z,0
2019-02-07T16:20:05.180Z,0
2019-02-07T16:23:33.049Z,0
2019-02-07T16:27:00.922Z,0
2019-02-07T16:30:30.599Z,0
2019-02-07T16:33:58.643Z,0
2019-02-07T16:37:26.499Z,0
2019-02-07T16:40:54.353Z,0
2019-02-07T16:44:22.230Z,0
2019-02-07T16:47:50.110Z,0
2019-02-07T16:51:17.958Z,0
2019-02-07T16:54:45.820Z,0
2019-02-07T16:58:14.687Z,0
2019-02-07T17:01:42.530Z,0
2019-02-07T17:05:10.404Z,0
2019-02-07T17:08:38.275Z,0
2019-02-07T17:12:06.154Z,0
2019-02-07T17:15:34.061Z,0
2019-02-07T17:19:01.871Z,0
2019-02-07T17:22:29.729Z,0
2019-02-07T17:25:57.578Z,0
2019-02-07T17:29:25.449Z,0
2019-02-07T17:32:53.326Z,0
2019-02-07T17:36:21.177Z,0
2019-02-07T17:39:50.038Z,0
2019-02-07T17:43:18.029Z,0
2019-02-07T17:46:46.150Z,0
2019-02-07T17:50:14.968Z,0
2019-02-07T17:53:43.824Z,0
2019-02-07T17:57:11.692Z,0
2019-02-07T18:00:39.549Z,0
2019-02-07T18:04:08.404Z,0
2019-02-07T18:07:36.283Z,0
2019-02-07T18:11:04.115Z,0
2019-02-07T18:14:31.983Z,0
2019-02-07T18:17:59.870Z,0
2019-02-07T18:21:34.072Z,0
2019-02-07T18:25:01.383Z,0
2019-02-07T18:28:30.469Z,0
2019-02-07T18:31:58.324Z,0
2019-02-07T18:35:26.210Z,0
2019-02-07T18:38:54.113Z,0
2019-02-07T18:42:21.958Z,0
2019-02-07T18:45:49.910Z,0
2019-02-07T18:49:18.557Z,0
2019-02-07T18:52:46.412Z,0
2019-02-07T18:56:14.268Z,0
2019-02-07T18:59:42.137Z,0
2019-02-07T19:03:09.996Z,0
2019-02-07T19:06:37.867Z,0
2019-02-07T19:10:06.736Z,0
2019-02-07T19:13:34.613Z,0
2019-02-07T19:17:02.571Z,0
2019-02-07T19:20:30.458Z,0
2019-02-07T19:23:58.310Z,0
2019-02-07T19:27:26.164Z,0
2019-02-07T19:30:54.044Z,0
2019-02-07T19:34:21.962Z,0
2019-02-07T19:37:49.831Z,0
2019-02-07T19:41:17.702Z,0
2019-02-07T19:44:47.290Z,0
2019-02-07T19:48:16.267Z,0
2019-02-07T19:51:47.771Z,0
2019-02-07T19:55:16.721Z,0
2019-02-07T19:58:46.326Z,0
2019-02-07T20:02:15.308Z,0
2019-02-07T20:05:43.228Z,0
2019-02-07T20:09:12.143Z,0
2019-02-07T20:12:42.422Z,0
2019-02-07T20:16:09.624Z,0
2019-02-07T20:19:37.820Z,0
2019-02-07T20:23:05.729Z,0
2019-02-07T20:26:33.830Z,0
2019-02-07T20:30:01.762Z,0
2019-02-07T20:33:30.291Z,0
2019-02-07T20:36:58.218Z,0
2019-02-07T20:40:26.158Z,0
2019-02-07T20:43:54.133Z,0
2019-02-07T20:47:22.050Z,0
2019-02-07T20:50:49.970Z,0
2019-02-07T20:54:19.142Z,0
2019-02-07T20:57:47.910Z,0
2019-02-07T21:01:15.834Z,0
2019-02-07T21:04:43.827Z,0
2019-02-07T21:08:11.795Z,0
2019-02-07T21:11:39.818Z,0
2019-02-07T21:15:08.715Z,0
2019-02-07T21:18:36.591Z,0
2019-02-07T21:22:05.294Z,0
2019-02-07T21:25:33.199Z,0
2019-02-07T21:29:02.014Z,0
2019-02-07T21:32:29.915Z,0
2019-02-07T21:35:58.532Z,0
2019-02-07T21:39:28.410Z,0
2019-02-07T21:42:57.281Z,0
2019-02-07T21:46:26.147Z,0
2019-02-07T21:49:53.989Z,0
2019-02-07T21:53:22.040Z,0
2019-02-07T21:56:49.908Z,0
2019-02-07T22:00:17.821Z,0
2019-02-07T22:03:45.719Z,0
2019-02-07T22:07:13.624Z,0
2019-02-07T22:10:42.066Z,0
2019-02-07T22:14:09.902Z,0
2019-02-07T22:17:37.785Z,0
2019-02-07T22:21:07.401Z,0
2019-02-07T22:24:35.247Z,0
2019-02-07T22:28:03.121Z,0
2019-02-07T22:31:31.985Z,0
2019-02-07T22:35:00.908Z,0
2019-02-07T22:38:29.918Z,0
2019-02-07T22:41:57.793Z,0
2019-02-07T22:45:26.659Z,0
2019-02-07T22:48:54.509Z,0
2019-02-07T22:52:22.394Z,0
2019-02-07T22:55:50.292Z,0
2019-02-07T22:59:19.135Z,0
